sensor_id;sensor_type;location;lat;lon;timestamp;P1;durP1;ratioP1;P2;durP2;ratioP2
49450;SDS011;35336;48.400;10.886;2024-02-15T00:00:08;3.47;;;2.38;;
49450;SDS011;35336;48.400;10.886;2024-02-15T00:00:27;2.75;;;2.08;;
49450;SDS011;35336;48.400;10.886;2024-02-15T00:00:42;4.25;;;2.08;;
49450;SDS011;35336;48.400;10.886;2024-02-15T00:00:57;5.30;;;2.30;;
49450;SDS011;35336;48.400;10.886;2024-02-15T00:01:13;4.40;;;2.40;;
49450;SDS011;35336;48.400;10.886;2024-02-15T00:01:29;3.47;;;2.40;;
49450;SDS011;35336;48.400;10.886;2024-02-15T00:01:44;3.15;;;2.45;;
49450;SDS011;35336;48.400;10.886;2024-02-15T00:02:00;3.53;;;2.33;;
49450;SDS011;35336;48.400;10.886;2024-02-15T00:02:15;3.58;;;2.17;;
49450;SDS011;35336;48.400;10.886;2024-02-15T00:02:31;3.23;;;2.30;;
49450;SDS011;35336;48.400;10.886;2024-02-15T00:02:46;3.67;;;2.50;;
49450;SDS011;35336;48.400;10.886;2024-02-15T00:03:01;3.90;;;2.53;;
49450;SDS011;35336;48.400;10.886;2024-02-15T00:03:17;3.43;;;2.60;;
49450;SDS011;35336;48.400;10.886;2024-02-15T00:03:32;2.90;;;2.30;;
49450;SDS011;35336;48.400;10.886;2024-02-15T00:03:47;2.70;;;2.22;;
49450;SDS011;35336;48.400;10.886;2024-02-15T00:04:03;2.70;;;2.30;;
49450;SDS011;35336;48.400;10.886;2024-02-15T00:04:18;2.70;;;2.17;;
49450;SDS011;35336;48.400;10.886;2024-02-15T00:04:33;4.32;;;2.35;;
49450;SDS011;35336;48.400;10.886;2024-02-15T00:04:51;4.13;;;2.30;;
49450;SDS011;35336;48.400;10.886;2024-02-15T00:05:06;2.70;;;2.10;;
49450;SDS011;35336;48.400;10.886;2024-02-15T00:05:22;3.88;;;2.20;;
49450;SDS011;35336;48.400;10.886;2024-02-15T00:05:37;4.40;;;2.20;;
49450;SDS011;35336;48.400;10.886;2024-02-15T00:05:52;3.60;;;2.40;;
49450;SDS011;35336;48.400;10.886;2024-02-15T00:06:08;2.87;;;2.40;;
49450;SDS011;35336;48.400;10.886;2024-02-15T00:06:23;3.10;;;2.10;;
49450;SDS011;35336;48.400;10.886;2024-02-15T00:06:38;3.03;;;1.90;;
49450;SDS011;35336;48.400;10.886;2024-02-15T00:06:53;2.23;;;1.80;;
49450;SDS011;35336;48.400;10.886;2024-02-15T00:07:09;2.27;;;1.90;;
49450;SDS011;35336;48.400;10.886;2024-02-15T00:07:24;2.60;;;2.10;;
49450;SDS011;35336;48.400;10.886;2024-02-15T00:07:39;2.63;;;2.33;;
49450;SDS011;35336;48.400;10.886;2024-02-15T00:07:55;2.87;;;2.27;;
49450;SDS011;35336;48.400;10.886;2024-02-15T00:08:10;2.90;;;2.10;;
49450;SDS011;35336;48.400;10.886;2024-02-15T00:08:28;2.53;;;1.98;;
49450;SDS011;35336;48.400;10.886;2024-02-15T00:08:44;2.75;;;1.83;;
49450;SDS011;35336;48.400;10.886;2024-02-15T00:09:01;3.08;;;2.00;;
49450;SDS011;35336;48.400;10.886;2024-02-15T00:09:17;2.47;;;1.92;;
49450;SDS011;35336;48.400;10.886;2024-02-15T00:09:32;2.33;;;2.07;;
49450;SDS011;35336;48.400;10.886;2024-02-15T00:09:48;2.42;;;2.17;;
49450;SDS011;35336;48.400;10.886;2024-02-15T00:10:05;2.50;;;2.03;;
49450;SDS011;35336;48.400;10.886;2024-02-15T00:10:21;2.65;;;2.13;;
49450;SDS011;35336;48.400;10.886;2024-02-15T00:10:36;2.55;;;2.15;;
49450;SDS011;35336;48.400;10.886;2024-02-15T00:10:54;2.75;;;2.20;;
49450;SDS011;35336;48.400;10.886;2024-02-15T00:11:09;3.83;;;2.30;;
49450;SDS011;35336;48.400;10.886;2024-02-15T00:11:24;4.13;;;2.30;;
49450;SDS011;35336;48.400;10.886;2024-02-15T00:11:40;3.60;;;2.25;;
49450;SDS011;35336;48.400;10.886;2024-02-15T00:11:55;2.97;;;2.17;;
49450;SDS011;35336;48.400;10.886;2024-02-15T00:12:11;2.67;;;2.10;;
49450;SDS011;35336;48.400;10.886;2024-02-15T00:12:26;2.37;;;2.00;;
49450;SDS011;35336;48.400;10.886;2024-02-15T00:12:42;2.23;;;1.97;;
49450;SDS011;35336;48.400;10.886;2024-02-15T00:12:57;2.50;;;2.00;;
49450;SDS011;35336;48.400;10.886;2024-02-15T00:13:13;2.92;;;2.10;;
49450;SDS011;35336;48.400;10.886;2024-02-15T00:13:28;3.40;;;2.30;;
49450;SDS011;35336;48.400;10.886;2024-02-15T00:13:44;3.03;;;2.30;;
49450;SDS011;35336;48.400;10.886;2024-02-15T00:14:01;3.00;;;2.38;;
49450;SDS011;35336;48.400;10.886;2024-02-15T00:14:16;3.27;;;2.23;;
49450;SDS011;35336;48.400;10.886;2024-02-15T00:14:36;3.08;;;1.90;;
49450;SDS011;35336;48.400;10.886;2024-02-15T00:14:52;2.25;;;2.00;;
49450;SDS011;35336;48.400;10.886;2024-02-15T00:15:07;2.40;;;1.90;;
49450;SDS011;35336;48.400;10.886;2024-02-15T00:15:23;2.80;;;1.92;;
49450;SDS011;35336;48.400;10.886;2024-02-15T00:15:38;2.57;;;1.90;;
49450;SDS011;35336;48.400;10.886;2024-02-15T00:15:53;2.43;;;1.77;;
49450;SDS011;35336;48.400;10.886;2024-02-15T00:16:14;2.10;;;1.83;;
49450;SDS011;35336;48.400;10.886;2024-02-15T00:16:29;2.00;;;1.80;;
49450;SDS011;35336;48.400;10.886;2024-02-15T00:16:45;2.10;;;1.80;;
49450;SDS011;35336;48.400;10.886;2024-02-15T00:17:00;2.10;;;1.80;;
49450;SDS011;35336;48.400;10.886;2024-02-15T00:17:15;3.27;;;1.90;;
49450;SDS011;35336;48.400;10.886;2024-02-15T00:17:31;3.70;;;2.05;;
49450;SDS011;35336;48.400;10.886;2024-02-15T00:17:46;2.00;;;1.80;;
49450;SDS011;35336;48.400;10.886;2024-02-15T00:18:01;2.40;;;1.93;;
49450;SDS011;35336;48.400;10.886;2024-02-15T00:18:17;3.20;;;2.03;;
49450;SDS011;35336;48.400;10.886;2024-02-15T00:18:32;2.43;;;1.93;;
49450;SDS011;35336;48.400;10.886;2024-02-15T00:18:52;2.55;;;2.10;;
49450;SDS011;35336;48.400;10.886;2024-02-15T00:19:10;3.10;;;2.15;;
49450;SDS011;35336;48.400;10.886;2024-02-15T00:19:25;3.80;;;2.10;;
49450;SDS011;35336;48.400;10.886;2024-02-15T00:19:40;2.97;;;2.00;;
49450;SDS011;35336;48.400;10.886;2024-02-15T00:19:58;2.97;;;2.20;;
49450;SDS011;35336;48.400;10.886;2024-02-15T00:20:15;2.58;;;2.13;;
49450;SDS011;35336;48.400;10.886;2024-02-15T00:20:31;2.43;;;1.90;;
49450;SDS011;35336;48.400;10.886;2024-02-15T00:20:46;2.92;;;1.80;;
49450;SDS011;35336;48.400;10.886;2024-02-15T00:21:01;3.20;;;1.80;;
49450;SDS011;35336;48.400;10.886;2024-02-15T00:21:17;3.30;;;1.90;;
49450;SDS011;35336;48.400;10.886;2024-02-15T00:21:32;2.63;;;1.80;;
49450;SDS011;35336;48.400;10.886;2024-02-15T00:21:50;1.95;;;1.70;;
49450;SDS011;35336;48.400;10.886;2024-02-15T00:22:05;2.55;;;2.00;;
49450;SDS011;35336;48.400;10.886;2024-02-15T00:22:25;2.53;;;2.08;;
49450;SDS011;35336;48.400;10.886;2024-02-15T00:22:43;2.10;;;1.90;;
49450;SDS011;35336;48.400;10.886;2024-02-15T00:23:03;2.20;;;1.95;;
49450;SDS011;35336;48.400;10.886;2024-02-15T00:23:18;2.55;;;1.95;;
49450;SDS011;35336;48.400;10.886;2024-02-15T00:23:36;2.80;;;2.15;;
49450;SDS011;35336;48.400;10.886;2024-02-15T00:23:51;2.97;;;2.10;;
49450;SDS011;35336;48.400;10.886;2024-02-15T00:24:06;3.40;;;2.00;;
49450;SDS011;35336;48.400;10.886;2024-02-15T00:24:22;2.67;;;1.80;;
49450;SDS011;35336;48.400;10.886;2024-02-15T00:24:42;2.35;;;2.00;;
49450;SDS011;35336;48.400;10.886;2024-02-15T00:24:57;2.70;;;2.10;;
49450;SDS011;35336;48.400;10.886;2024-02-15T00:25:12;2.40;;;1.87;;
49450;SDS011;35336;48.400;10.886;2024-02-15T00:25:28;2.63;;;1.77;;
49450;SDS011;35336;48.400;10.886;2024-02-15T00:25:43;2.27;;;1.80;;
49450;SDS011;35336;48.400;10.886;2024-02-15T00:25:58;2.77;;;2.03;;
49450;SDS011;35336;48.400;10.886;2024-02-15T00:26:14;3.67;;;2.20;;
49450;SDS011;35336;48.400;10.886;2024-02-15T00:26:30;3.03;;;2.05;;
49450;SDS011;35336;48.400;10.886;2024-02-15T00:26:47;2.53;;;2.00;;
49450;SDS011;35336;48.400;10.886;2024-02-15T00:27:02;2.67;;;2.00;;
49450;SDS011;35336;48.400;10.886;2024-02-15T00:27:18;1.90;;;1.70;;
49450;SDS011;35336;48.400;10.886;2024-02-15T00:27:33;2.15;;;1.77;;
49450;SDS011;35336;48.400;10.886;2024-02-15T00:27:48;2.90;;;2.00;;
49450;SDS011;35336;48.400;10.886;2024-02-15T00:28:04;2.47;;;1.97;;
49450;SDS011;35336;48.400;10.886;2024-02-15T00:28:20;2.50;;;1.98;;
49450;SDS011;35336;48.400;10.886;2024-02-15T00:28:35;2.73;;;1.90;;
49450;SDS011;35336;48.400;10.886;2024-02-15T00:28:50;2.60;;;2.00;;
49450;SDS011;35336;48.400;10.886;2024-02-15T00:29:06;2.53;;;2.33;;
49450;SDS011;35336;48.400;10.886;2024-02-15T00:29:21;3.33;;;2.30;;
49450;SDS011;35336;48.400;10.886;2024-02-15T00:29:37;3.63;;;2.13;;
49450;SDS011;35336;48.400;10.886;2024-02-15T00:29:52;2.73;;;2.00;;
49450;SDS011;35336;48.400;10.886;2024-02-15T00:30:08;3.13;;;2.10;;
49450;SDS011;35336;48.400;10.886;2024-02-15T00:30:23;3.42;;;2.20;;
49450;SDS011;35336;48.400;10.886;2024-02-15T00:30:39;4.28;;;2.30;;
49450;SDS011;35336;48.400;10.886;2024-02-15T00:30:54;4.47;;;2.17;;
49450;SDS011;35336;48.400;10.886;2024-02-15T00:31:10;3.55;;;1.90;;
49450;SDS011;35336;48.400;10.886;2024-02-15T00:31:27;2.55;;;2.10;;
49450;SDS011;35336;48.400;10.886;2024-02-15T00:31:45;2.37;;;2.10;;
49450;SDS011;35336;48.400;10.886;2024-02-15T00:32:00;2.05;;;1.85;;
49450;SDS011;35336;48.400;10.886;2024-02-15T00:32:16;2.20;;;2.00;;
49450;SDS011;35336;48.400;10.886;2024-02-15T00:32:31;2.90;;;2.20;;
49450;SDS011;35336;48.400;10.886;2024-02-15T00:32:46;2.83;;;2.10;;
49450;SDS011;35336;48.400;10.886;2024-02-15T00:33:02;2.50;;;2.10;;
49450;SDS011;35336;48.400;10.886;2024-02-15T00:33:17;2.50;;;2.25;;
49450;SDS011;35336;48.400;10.886;2024-02-15T00:33:33;3.40;;;2.40;;
49450;SDS011;35336;48.400;10.886;2024-02-15T00:33:48;4.05;;;2.50;;
49450;SDS011;35336;48.400;10.886;2024-02-15T00:34:04;4.00;;;2.50;;
49450;SDS011;35336;48.400;10.886;2024-02-15T00:34:19;3.50;;;2.47;;
49450;SDS011;35336;48.400;10.886;2024-02-15T00:34:34;3.10;;;2.30;;
49450;SDS011;35336;48.400;10.886;2024-02-15T00:34:50;3.20;;;2.27;;
49450;SDS011;35336;48.400;10.886;2024-02-15T00:35:05;3.23;;;2.50;;
49450;SDS011;35336;48.400;10.886;2024-02-15T00:35:21;3.88;;;2.83;;
49450;SDS011;35336;48.400;10.886;2024-02-15T00:35:36;3.70;;;2.77;;
49450;SDS011;35336;48.400;10.886;2024-02-15T00:35:51;3.47;;;2.80;;
49450;SDS011;35336;48.400;10.886;2024-02-15T00:36:07;4.13;;;3.17;;
49450;SDS011;35336;48.400;10.886;2024-02-15T00:36:22;5.10;;;3.23;;
49450;SDS011;35336;48.400;10.886;2024-02-15T00:36:37;4.73;;;2.90;;
49450;SDS011;35336;48.400;10.886;2024-02-15T00:36:53;3.85;;;2.78;;
49450;SDS011;35336;48.400;10.886;2024-02-15T00:37:08;3.70;;;2.83;;
49450;SDS011;35336;48.400;10.886;2024-02-15T00:37:23;3.80;;;2.83;;
49450;SDS011;35336;48.400;10.886;2024-02-15T00:37:40;4.30;;;2.93;;
49450;SDS011;35336;48.400;10.886;2024-02-15T00:37:55;4.32;;;3.05;;
49450;SDS011;35336;48.400;10.886;2024-02-15T00:38:11;4.37;;;2.90;;
49450;SDS011;35336;48.400;10.886;2024-02-15T00:38:28;4.93;;;3.00;;
49450;SDS011;35336;48.400;10.886;2024-02-15T00:38:44;5.10;;;3.13;;
49450;SDS011;35336;48.400;10.886;2024-02-15T00:38:59;4.80;;;3.40;;
49450;SDS011;35336;48.400;10.886;2024-02-15T00:39:17;4.78;;;3.58;;
49450;SDS011;35336;48.400;10.886;2024-02-15T00:39:32;5.90;;;3.70;;
49450;SDS011;35336;48.400;10.886;2024-02-15T00:39:47;7.00;;;4.55;;
49450;SDS011;35336;48.400;10.886;2024-02-15T00:40:03;7.20;;;5.30;;
49450;SDS011;35336;48.400;10.886;2024-02-15T00:40:20;8.63;;;6.30;;
49450;SDS011;35336;48.400;10.886;2024-02-15T00:40:36;12.25;;;8.88;;
49450;SDS011;35336;48.400;10.886;2024-02-15T00:40:51;13.47;;;9.90;;
49450;SDS011;35336;48.400;10.886;2024-02-15T00:41:09;14.70;;;10.20;;
49450;SDS011;35336;48.400;10.886;2024-02-15T00:41:24;14.25;;;9.43;;
49450;SDS011;35336;48.400;10.886;2024-02-15T00:41:40;11.63;;;8.00;;
49450;SDS011;35336;48.400;10.886;2024-02-15T00:41:55;10.30;;;7.50;;
49450;SDS011;35336;48.400;10.886;2024-02-15T00:42:10;9.03;;;7.13;;
49450;SDS011;35336;48.400;10.886;2024-02-15T00:42:26;7.75;;;6.18;;
49450;SDS011;35336;48.400;10.886;2024-02-15T00:42:41;7.47;;;5.27;;
49450;SDS011;35336;48.400;10.886;2024-02-15T00:42:56;7.83;;;4.70;;
49450;SDS011;35336;48.400;10.886;2024-02-15T00:43:14;8.43;;;5.50;;
49450;SDS011;35336;48.400;10.886;2024-02-15T00:43:34;7.72;;;5.90;;
49450;SDS011;35336;48.400;10.886;2024-02-15T00:43:50;6.93;;;5.45;;
49450;SDS011;35336;48.400;10.886;2024-02-15T00:44:07;6.55;;;5.40;;
49450;SDS011;35336;48.400;10.886;2024-02-15T00:44:24;8.55;;;5.35;;
49450;SDS011;35336;48.400;10.886;2024-02-15T00:44:39;9.27;;;5.77;;
49450;SDS011;35336;48.400;10.886;2024-02-15T00:44:58;8.07;;;5.88;;
49450;SDS011;35336;48.400;10.886;2024-02-15T00:45:14;7.72;;;5.35;;
49450;SDS011;35336;48.400;10.886;2024-02-15T00:45:29;6.97;;;4.63;;
49450;SDS011;35336;48.400;10.886;2024-02-15T00:45:44;5.78;;;3.83;;
49450;SDS011;35336;48.400;10.886;2024-02-15T00:46:02;5.18;;;3.90;;
49450;SDS011;35336;48.400;10.886;2024-02-15T00:46:20;4.50;;;3.55;;
49450;SDS011;35336;48.400;10.886;2024-02-15T00:46:36;4.05;;;3.20;;
49450;SDS011;35336;48.400;10.886;2024-02-15T00:46:53;4.57;;;3.28;;
49450;SDS011;35336;48.400;10.886;2024-02-15T00:47:13;4.22;;;3.15;;
49450;SDS011;35336;48.400;10.886;2024-02-15T00:47:29;4.82;;;3.35;;
49450;SDS011;35336;48.400;10.886;2024-02-15T00:47:44;5.33;;;3.40;;
49450;SDS011;35336;48.400;10.886;2024-02-15T00:47:59;4.77;;;3.23;;
49450;SDS011;35336;48.400;10.886;2024-02-15T00:48:15;4.70;;;3.17;;
49450;SDS011;35336;48.400;10.886;2024-02-15T00:48:30;4.73;;;2.83;;
49450;SDS011;35336;48.400;10.886;2024-02-15T00:48:45;4.43;;;2.80;;
49450;SDS011;35336;48.400;10.886;2024-02-15T00:49:00;4.00;;;3.00;;
49450;SDS011;35336;48.400;10.886;2024-02-15T00:49:19;3.88;;;2.70;;
49450;SDS011;35336;48.400;10.886;2024-02-15T00:49:35;4.17;;;2.60;;
49450;SDS011;35336;48.400;10.886;2024-02-15T00:49:50;4.35;;;2.60;;
49450;SDS011;35336;48.400;10.886;2024-02-15T00:50:06;4.90;;;2.80;;
49450;SDS011;35336;48.400;10.886;2024-02-15T00:50:22;5.45;;;3.08;;
49450;SDS011;35336;48.400;10.886;2024-02-15T00:50:37;4.35;;;2.97;;
49450;SDS011;35336;48.400;10.886;2024-02-15T00:50:55;3.93;;;2.97;;
49450;SDS011;35336;48.400;10.886;2024-02-15T00:51:16;4.55;;;3.33;;
49450;SDS011;35336;48.400;10.886;2024-02-15T00:51:34;5.20;;;3.60;;
49450;SDS011;35336;48.400;10.886;2024-02-15T00:51:50;5.63;;;3.63;;
49450;SDS011;35336;48.400;10.886;2024-02-15T00:52:05;5.85;;;3.78;;
49450;SDS011;35336;48.400;10.886;2024-02-15T00:52:23;5.15;;;3.90;;
49450;SDS011;35336;48.400;10.886;2024-02-15T00:52:38;4.97;;;3.90;;
49450;SDS011;35336;48.400;10.886;2024-02-15T00:52:53;5.60;;;4.07;;
49450;SDS011;35336;48.400;10.886;2024-02-15T00:53:08;5.05;;;4.00;;
49450;SDS011;35336;48.400;10.886;2024-02-15T00:53:24;5.07;;;3.93;;
49450;SDS011;35336;48.400;10.886;2024-02-15T00:53:40;6.07;;;4.00;;
49450;SDS011;35336;48.400;10.886;2024-02-15T00:53:55;6.00;;;3.80;;
49450;SDS011;35336;48.400;10.886;2024-02-15T00:54:10;5.73;;;3.73;;
49450;SDS011;35336;48.400;10.886;2024-02-15T00:54:25;5.57;;;3.77;;
49450;SDS011;35336;48.400;10.886;2024-02-15T00:54:43;4.68;;;3.45;;
49450;SDS011;35336;48.400;10.886;2024-02-15T00:54:58;4.68;;;3.60;;
49450;SDS011;35336;48.400;10.886;2024-02-15T00:55:13;5.17;;;3.80;;
49450;SDS011;35336;48.400;10.886;2024-02-15T00:55:29;5.50;;;3.78;;
49450;SDS011;35336;48.400;10.886;2024-02-15T00:55:44;5.43;;;3.80;;
49450;SDS011;35336;48.400;10.886;2024-02-15T00:55:59;4.50;;;3.43;;
49450;SDS011;35336;48.400;10.886;2024-02-15T00:56:15;4.83;;;3.47;;
49450;SDS011;35336;48.400;10.886;2024-02-15T00:56:32;5.25;;;3.75;;
49450;SDS011;35336;48.400;10.886;2024-02-15T00:56:47;5.53;;;3.70;;
49450;SDS011;35336;48.400;10.886;2024-02-15T00:57:03;5.10;;;3.70;;
49450;SDS011;35336;48.400;10.886;2024-02-15T00:57:20;5.13;;;3.75;;
49450;SDS011;35336;48.400;10.886;2024-02-15T00:57:36;5.53;;;3.73;;
49450;SDS011;35336;48.400;10.886;2024-02-15T00:57:51;5.93;;;3.67;;
49450;SDS011;35336;48.400;10.886;2024-02-15T00:58:06;5.07;;;3.65;;
49450;SDS011;35336;48.400;10.886;2024-02-15T00:58:24;4.87;;;3.73;;
49450;SDS011;35336;48.400;10.886;2024-02-15T00:58:39;5.03;;;3.80;;
49450;SDS011;35336;48.400;10.886;2024-02-15T00:58:56;4.72;;;3.58;;
49450;SDS011;35336;48.400;10.886;2024-02-15T00:59:12;4.87;;;3.27;;
49450;SDS011;35336;48.400;10.886;2024-02-15T00:59:27;5.07;;;3.40;;
49450;SDS011;35336;48.400;10.886;2024-02-15T00:59:43;5.10;;;3.60;;
49450;SDS011;35336;48.400;10.886;2024-02-15T01:00:03;5.28;;;3.50;;
49450;SDS011;35336;48.400;10.886;2024-02-15T01:00:19;4.95;;;3.33;;
49450;SDS011;35336;48.400;10.886;2024-02-15T01:00:37;3.80;;;3.38;;
49450;SDS011;35336;48.400;10.886;2024-02-15T01:00:53;4.53;;;3.50;;
49450;SDS011;35336;48.400;10.886;2024-02-15T01:01:08;4.90;;;3.65;;
49450;SDS011;35336;48.400;10.886;2024-02-15T01:01:23;4.50;;;3.40;;
49450;SDS011;35336;48.400;10.886;2024-02-15T01:01:39;4.05;;;3.20;;
49450;SDS011;35336;48.400;10.886;2024-02-15T01:01:56;3.83;;;3.05;;
49450;SDS011;35336;48.400;10.886;2024-02-15T01:02:11;3.97;;;2.93;;
49450;SDS011;35336;48.400;10.886;2024-02-15T01:02:29;6.20;;;3.15;;
49450;SDS011;35336;48.400;10.886;2024-02-15T01:02:46;6.73;;;3.07;;
49450;SDS011;35336;48.400;10.886;2024-02-15T01:03:02;5.32;;;2.97;;
49450;SDS011;35336;48.400;10.886;2024-02-15T01:03:17;4.70;;;2.90;;
49450;SDS011;35336;48.400;10.886;2024-02-15T01:03:35;4.53;;;2.90;;
49450;SDS011;35336;48.400;10.886;2024-02-15T01:03:50;4.68;;;3.00;;
49450;SDS011;35336;48.400;10.886;2024-02-15T01:04:05;5.23;;;3.00;;
49450;SDS011;35336;48.400;10.886;2024-02-15T01:04:21;5.40;;;3.07;;
49450;SDS011;35336;48.400;10.886;2024-02-15T01:04:36;5.03;;;3.00;;
49450;SDS011;35336;48.400;10.886;2024-02-15T01:04:53;4.55;;;3.00;;
49450;SDS011;35336;48.400;10.886;2024-02-15T01:05:12;4.45;;;3.00;;
49450;SDS011;35336;48.400;10.886;2024-02-15T01:05:28;3.88;;;2.80;;
49450;SDS011;35336;48.400;10.886;2024-02-15T01:05:43;3.37;;;2.70;;
49450;SDS011;35336;48.400;10.886;2024-02-15T01:06:01;3.58;;;2.80;;
49450;SDS011;35336;48.400;10.886;2024-02-15T01:06:18;4.23;;;2.90;;
49450;SDS011;35336;48.400;10.886;2024-02-15T01:06:34;3.92;;;2.80;;
49450;SDS011;35336;48.400;10.886;2024-02-15T01:06:49;3.50;;;2.70;;
49450;SDS011;35336;48.400;10.886;2024-02-15T01:07:04;3.73;;;2.97;;
49450;SDS011;35336;48.400;10.886;2024-02-15T01:07:20;3.35;;;2.80;;
49450;SDS011;35336;48.400;10.886;2024-02-15T01:07:38;3.45;;;2.67;;
49450;SDS011;35336;48.400;10.886;2024-02-15T01:07:53;4.27;;;2.80;;
49450;SDS011;35336;48.400;10.886;2024-02-15T01:08:08;4.50;;;2.70;;
49450;SDS011;35336;48.400;10.886;2024-02-15T01:08:24;4.10;;;2.80;;
49450;SDS011;35336;48.400;10.886;2024-02-15T01:08:39;4.43;;;2.93;;
49450;SDS011;35336;48.400;10.886;2024-02-15T01:08:54;4.40;;;2.83;;
49450;SDS011;35336;48.400;10.886;2024-02-15T01:09:10;3.80;;;2.70;;
49450;SDS011;35336;48.400;10.886;2024-02-15T01:09:25;4.40;;;2.67;;
49450;SDS011;35336;48.400;10.886;2024-02-15T01:09:43;4.57;;;2.70;;
49450;SDS011;35336;48.400;10.886;2024-02-15T01:10:00;5.68;;;2.80;;
49450;SDS011;35336;48.400;10.886;2024-02-15T01:10:16;5.82;;;2.90;;
49450;SDS011;35336;48.400;10.886;2024-02-15T01:10:31;4.33;;;2.63;;
49450;SDS011;35336;48.400;10.886;2024-02-15T01:10:46;3.47;;;2.67;;
49450;SDS011;35336;48.400;10.886;2024-02-15T01:11:02;3.60;;;2.77;;
49450;SDS011;35336;48.400;10.886;2024-02-15T01:11:17;3.90;;;2.70;;
49450;SDS011;35336;48.400;10.886;2024-02-15T01:11:32;4.22;;;2.80;;
49450;SDS011;35336;48.400;10.886;2024-02-15T01:11:50;3.75;;;2.78;;
49450;SDS011;35336;48.400;10.886;2024-02-15T01:12:08;4.22;;;2.67;;
49450;SDS011;35336;48.400;10.886;2024-02-15T01:12:23;5.70;;;2.77;;
49450;SDS011;35336;48.400;10.886;2024-02-15T01:12:38;6.70;;;3.00;;
49450;SDS011;35336;48.400;10.886;2024-02-15T01:12:54;5.25;;;3.08;;
49450;SDS011;35336;48.400;10.886;2024-02-15T01:13:09;3.20;;;2.60;;
49450;SDS011;35336;48.400;10.886;2024-02-15T01:13:24;3.53;;;2.47;;
49450;SDS011;35336;48.400;10.886;2024-02-15T01:13:40;3.65;;;2.55;;
49450;SDS011;35336;48.400;10.886;2024-02-15T01:13:55;4.67;;;2.73;;
49450;SDS011;35336;48.400;10.886;2024-02-15T01:14:12;5.07;;;2.90;;
49450;SDS011;35336;48.400;10.886;2024-02-15T01:14:30;5.40;;;2.90;;
49450;SDS011;35336;48.400;10.886;2024-02-15T01:14:46;5.50;;;2.90;;
49450;SDS011;35336;48.400;10.886;2024-02-15T01:15:03;4.10;;;2.70;;
49450;SDS011;35336;48.400;10.886;2024-02-15T01:15:24;2.90;;;2.45;;
49450;SDS011;35336;48.400;10.886;2024-02-15T01:15:40;3.83;;;2.65;;
49450;SDS011;35336;48.400;10.886;2024-02-15T01:15:55;4.75;;;2.53;;
49450;SDS011;35336;48.400;10.886;2024-02-15T01:16:13;3.45;;;2.50;;
49450;SDS011;35336;48.400;10.886;2024-02-15T01:16:28;3.42;;;2.53;;
49450;SDS011;35336;48.400;10.886;2024-02-15T01:16:43;3.87;;;2.60;;
49450;SDS011;35336;48.400;10.886;2024-02-15T01:16:59;3.57;;;2.70;;
49450;SDS011;35336;48.400;10.886;2024-02-15T01:17:16;4.07;;;3.00;;
49450;SDS011;35336;48.400;10.886;2024-02-15T01:17:31;3.93;;;2.90;;
49450;SDS011;35336;48.400;10.886;2024-02-15T01:17:47;3.73;;;2.70;;
49450;SDS011;35336;48.400;10.886;2024-02-15T01:18:03;3.97;;;2.78;;
49450;SDS011;35336;48.400;10.886;2024-02-15T01:18:18;3.90;;;2.70;;
49450;SDS011;35336;48.400;10.886;2024-02-15T01:18:33;3.63;;;2.42;;
49450;SDS011;35336;48.400;10.886;2024-02-15T01:18:49;3.83;;;2.60;;
49450;SDS011;35336;48.400;10.886;2024-02-15T01:19:04;4.13;;;2.87;;
49450;SDS011;35336;48.400;10.886;2024-02-15T01:19:19;4.40;;;2.93;;
49450;SDS011;35336;48.400;10.886;2024-02-15T01:19:37;4.80;;;2.90;;
49450;SDS011;35336;48.400;10.886;2024-02-15T01:19:52;5.17;;;2.83;;
49450;SDS011;35336;48.400;10.886;2024-02-15T01:20:10;4.72;;;2.80;;
49450;SDS011;35336;48.400;10.886;2024-02-15T01:20:25;4.32;;;2.75;;
49450;SDS011;35336;48.400;10.886;2024-02-15T01:20:41;4.47;;;2.70;;
49450;SDS011;35336;48.400;10.886;2024-02-15T01:20:56;4.63;;;2.80;;
49450;SDS011;35336;48.400;10.886;2024-02-15T01:21:11;5.13;;;2.90;;
49450;SDS011;35336;48.400;10.886;2024-02-15T01:21:27;4.27;;;2.73;;
49450;SDS011;35336;48.400;10.886;2024-02-15T01:21:42;4.03;;;2.80;;
49450;SDS011;35336;48.400;10.886;2024-02-15T01:21:57;5.23;;;3.00;;
49450;SDS011;35336;48.400;10.886;2024-02-15T01:22:12;5.23;;;3.10;;
49450;SDS011;35336;48.400;10.886;2024-02-15T01:22:28;4.50;;;3.00;;
49450;SDS011;35336;48.400;10.886;2024-02-15T01:22:43;5.03;;;2.95;;
49450;SDS011;35336;48.400;10.886;2024-02-15T01:22:58;5.60;;;3.10;;
49450;SDS011;35336;48.400;10.886;2024-02-15T01:23:14;6.37;;;3.10;;
49450;SDS011;35336;48.400;10.886;2024-02-15T01:23:29;6.35;;;2.95;;
49450;SDS011;35336;48.400;10.886;2024-02-15T01:23:45;4.67;;;2.87;;
49450;SDS011;35336;48.400;10.886;2024-02-15T01:24:00;4.37;;;3.00;;
49450;SDS011;35336;48.400;10.886;2024-02-15T01:24:18;4.47;;;2.80;;
49450;SDS011;35336;48.400;10.886;2024-02-15T01:24:36;4.18;;;2.63;;
49450;SDS011;35336;48.400;10.886;2024-02-15T01:24:51;4.80;;;2.80;;
49450;SDS011;35336;48.400;10.886;2024-02-15T01:25:06;4.13;;;2.70;;
49450;SDS011;35336;48.400;10.886;2024-02-15T01:25:22;3.72;;;2.60;;
49450;SDS011;35336;48.400;10.886;2024-02-15T01:25:37;3.93;;;2.70;;
49450;SDS011;35336;48.400;10.886;2024-02-15T01:25:55;3.47;;;2.50;;
49450;SDS011;35336;48.400;10.886;2024-02-15T01:26:12;4.25;;;2.72;;
49450;SDS011;35336;48.400;10.886;2024-02-15T01:26:28;6.20;;;2.80;;
49450;SDS011;35336;48.400;10.886;2024-02-15T01:26:43;6.17;;;2.90;;
49450;SDS011;35336;48.400;10.886;2024-02-15T01:26:58;4.17;;;3.00;;
49450;SDS011;35336;48.400;10.886;2024-02-15T01:27:13;3.57;;;2.83;;
49450;SDS011;35336;48.400;10.886;2024-02-15T01:27:31;4.15;;;2.78;;
49450;SDS011;35336;48.400;10.886;2024-02-15T01:27:46;4.43;;;2.80;;
49450;SDS011;35336;48.400;10.886;2024-02-15T01:28:02;5.35;;;2.85;;
49450;SDS011;35336;48.400;10.886;2024-02-15T01:28:19;5.27;;;2.70;;
49450;SDS011;35336;48.400;10.886;2024-02-15T01:28:37;3.63;;;2.50;;
49450;SDS011;35336;48.400;10.886;2024-02-15T01:28:52;3.23;;;2.57;;
49450;SDS011;35336;48.400;10.886;2024-02-15T01:29:08;4.00;;;2.67;;
49450;SDS011;35336;48.400;10.886;2024-02-15T01:29:24;4.40;;;2.70;;
49450;SDS011;35336;48.400;10.886;2024-02-15T01:29:39;4.13;;;2.92;;
49450;SDS011;35336;48.400;10.886;2024-02-15T01:29:55;4.00;;;2.90;;
49450;SDS011;35336;48.400;10.886;2024-02-15T01:30:13;4.15;;;2.88;;
49450;SDS011;35336;48.400;10.886;2024-02-15T01:30:28;4.50;;;2.83;;
49450;SDS011;35336;48.400;10.886;2024-02-15T01:30:44;3.90;;;2.50;;
49450;SDS011;35336;48.400;10.886;2024-02-15T01:31:01;3.45;;;2.63;;
49450;SDS011;35336;48.400;10.886;2024-02-15T01:31:18;4.25;;;3.00;;
49450;SDS011;35336;48.400;10.886;2024-02-15T01:31:38;3.25;;;2.53;;
49450;SDS011;35336;48.400;10.886;2024-02-15T01:31:53;3.97;;;2.33;;
49450;SDS011;35336;48.400;10.886;2024-02-15T01:32:10;4.07;;;2.50;;
49450;SDS011;35336;48.400;10.886;2024-02-15T01:32:31;3.17;;;2.70;;
49450;SDS011;35336;48.400;10.886;2024-02-15T01:32:46;3.03;;;2.70;;
49450;SDS011;35336;48.400;10.886;2024-02-15T01:33:01;2.97;;;2.47;;
49450;SDS011;35336;48.400;10.886;2024-02-15T01:33:17;2.80;;;2.30;;
49450;SDS011;35336;48.400;10.886;2024-02-15T01:33:32;2.80;;;2.37;;
49450;SDS011;35336;48.400;10.886;2024-02-15T01:33:47;3.17;;;2.60;;
49450;SDS011;35336;48.400;10.886;2024-02-15T01:34:03;3.90;;;2.78;;
49450;SDS011;35336;48.400;10.886;2024-02-15T01:34:20;5.32;;;2.70;;
49450;SDS011;35336;48.400;10.886;2024-02-15T01:34:36;4.32;;;2.47;;
49450;SDS011;35336;48.400;10.886;2024-02-15T01:34:51;3.40;;;2.50;;